createdAt,value
2023-05-23T00:02:01.858Z,28.60
2023-05-23T00:04:32.314Z,28.60
2023-05-23T00:07:02.552Z,28.70
2023-05-23T00:09:32.449Z,28.70
2023-05-23T00:12:02.769Z,28.80
2023-05-23T00:14:36.790Z,28.80
2023-05-23T00:17:07.566Z,28.80
2023-05-23T00:19:37.873Z,28.80
2023-05-23T00:22:08.274Z,28.70
2023-05-23T00:24:38.062Z,28.70
2023-05-23T00:27:08.242Z,28.70
2023-05-23T00:29:38.058Z,28.80
2023-05-23T00:32:08.460Z,28.90
2023-05-23T00:34:39.331Z,28.90
2023-05-23T00:37:09.711Z,28.90
2023-05-23T00:39:39.583Z,28.90
2023-05-23T00:42:10.224Z,29.00
2023-05-23T00:44:40.427Z,29.00
2023-05-23T00:47:11.024Z,29.10
2023-05-23T00:49:41.597Z,29.10
2023-05-23T00:52:12.373Z,29.20
2023-05-23T00:54:42.736Z,29.20
2023-05-23T00:57:12.920Z,29.20
2023-05-23T00:59:43.894Z,29.30
2023-05-23T01:02:14.384Z,29.40
2023-05-23T01:04:46.002Z,29.50
2023-05-23T01:07:16.616Z,29.40
2023-05-23T01:09:47.257Z,29.50
2023-05-23T01:12:51.828Z,29.40
2023-05-23T01:15:24.406Z,29.50
2023-05-23T01:18:22.754Z,29.50
2023-05-23T01:21:05.381Z,29.60
2023-05-23T01:24:14.725Z,29.50
2023-05-23T01:27:06.012Z,29.70
2023-05-23T01:29:41.740Z,29.90
2023-05-23T01:32:15.951Z,29.90
2023-05-23T01:34:47.354Z,30.00
2023-05-23T01:37:20.242Z,30.10
2023-05-23T01:39:50.705Z,30.20
2023-05-23T01:42:20.763Z,30.30
2023-05-23T01:44:50.905Z,30.40
2023-05-23T01:47:21.374Z,30.40
2023-05-23T01:49:52.221Z,30.40
2023-05-23T01:52:24.075Z,30.40
2023-05-23T01:54:55.036Z,30.40
2023-05-23T01:57:25.974Z,30.50
2023-05-23T01:59:56.552Z,30.50
2023-05-23T02:02:26.596Z,30.60
2023-05-23T02:04:59.106Z,30.50
2023-05-23T02:07:29.298Z,30.70
2023-05-23T02:09:59.126Z,30.80
2023-05-23T02:12:29.132Z,30.70
2023-05-23T02:14:59.071Z,30.60
2023-05-23T02:17:29.354Z,30.50
2023-05-23T02:19:59.219Z,30.70
2023-05-23T02:22:29.309Z,30.70
2023-05-23T02:24:59.570Z,30.90
2023-05-23T02:27:30.755Z,30.70
2023-05-23T02:30:01.293Z,30.90
2023-05-23T02:32:32.396Z,31.20
2023-05-23T02:35:04.126Z,31.30
2023-05-23T02:37:34.773Z,31.50
2023-05-23T02:40:07.090Z,31.40
2023-05-23T02:42:39.155Z,31.30
2023-05-23T02:45:10.884Z,31.50
2023-05-23T02:47:41.683Z,31.70
2023-05-23T02:50:12.699Z,31.80
2023-05-23T02:52:44.258Z,31.90
2023-05-23T02:55:14.712Z,32.00
2023-05-23T02:57:49.321Z,31.90
2023-05-23T03:00:20.374Z,31.90
2023-05-23T03:02:55.365Z,32.10
2023-05-23T03:05:26.082Z,32.30
2023-05-23T03:07:56.579Z,32.20
2023-05-23T03:10:26.924Z,32.50
2023-05-23T03:12:58.643Z,32.70
2023-05-23T03:15:29.244Z,32.80
2023-05-23T03:17:59.947Z,32.50
2023-05-23T03:20:30.349Z,32.50
2023-05-23T03:23:00.485Z,32.70
2023-05-23T03:25:30.985Z,32.70
2023-05-23T03:28:01.527Z,32.90
2023-05-23T03:30:31.373Z,33.10
2023-05-23T03:33:01.696Z,33.20
2023-05-23T03:35:32.466Z,33.40
2023-05-23T03:38:02.849Z,33.40
2023-05-23T03:40:32.745Z,33.50
2023-05-23T03:43:07.861Z,33.70
2023-05-23T03:45:41.741Z,34.00
2023-05-23T03:48:16.261Z,34.20
2023-05-23T03:50:46.483Z,34.20
2023-05-23T03:53:16.309Z,34.40
2023-05-23T03:55:47.077Z,34.30
2023-05-23T03:58:17.455Z,34.60
2023-05-23T04:00:50.315Z,34.50
2023-05-23T04:03:20.634Z,34.60
2023-05-23T04:05:51.796Z,34.80
2023-05-23T04:08:23.620Z,34.60
2023-05-23T04:10:54.308Z,34.60
2023-05-23T04:13:26.518Z,34.80
2023-05-23T04:16:03.008Z,34.60
2023-05-23T04:18:40.535Z,34.70
2023-05-23T04:21:11.129Z,34.50
2023-05-23T04:23:49.545Z,34.60
2023-05-23T04:26:19.574Z,34.60
2023-05-23T04:28:55.857Z,34.60
2023-05-23T04:31:26.316Z,34.80
2023-05-23T04:33:56.102Z,34.90
2023-05-23T04:36:27.415Z,35.00
2023-05-23T04:38:58.314Z,35.10
2023-05-23T04:41:29.765Z,35.30
2023-05-23T04:44:19.527Z,35.20
2023-05-23T04:46:58.092Z,35.20
2023-05-23T04:49:35.769Z,35.40
2023-05-23T04:52:05.993Z,35.50
2023-05-23T04:54:37.848Z,34.90
2023-05-23T04:57:08.351Z,35.10
2023-05-23T04:59:39.742Z,35.40
2023-05-23T05:02:11.129Z,35.50
2023-05-23T05:04:41.496Z,35.60
2023-05-23T05:07:11.380Z,35.60
2023-05-23T05:09:42.313Z,35.70
2023-05-23T05:12:14.297Z,35.70
2023-05-23T05:14:45.287Z,36.10
2023-05-23T05:17:15.223Z,36.50
2023-05-23T05:20:09.983Z,36.40
2023-05-23T05:22:45.202Z,36.50
2023-05-23T05:25:15.946Z,36.40
2023-05-23T05:27:46.101Z,36.30
2023-05-23T05:30:19.645Z,36.00
2023-05-23T05:32:55.065Z,35.80
2023-05-23T05:35:25.369Z,36.00
2023-05-23T05:37:55.177Z,36.10
2023-05-23T05:40:25.359Z,36.50
2023-05-23T05:42:55.215Z,36.60
2023-05-23T05:45:26.541Z,36.90
2023-05-23T05:47:57.338Z,36.80
2023-05-23T05:50:28.356Z,36.80
2023-05-23T05:52:58.755Z,36.60
2023-05-23T05:55:28.636Z,36.30
2023-05-23T05:57:58.913Z,36.40
2023-05-23T06:00:32.195Z,36.20
2023-05-23T06:03:02.506Z,36.30
2023-05-23T06:05:51.938Z,36.30
2023-05-23T06:08:22.368Z,36.50
2023-05-23T06:10:52.438Z,36.60
2023-05-23T06:13:22.507Z,36.70
2023-05-23T06:15:56.051Z,36.40
2023-05-23T06:18:29.073Z,36.30
2023-05-23T06:20:59.383Z,36.40
2023-05-23T06:23:29.636Z,36.40
2023-05-23T06:26:02.077Z,36.40
2023-05-23T06:28:32.173Z,36.30
2023-05-23T06:31:02.181Z,36.20
2023-05-23T06:33:33.107Z,36.20
2023-05-23T06:36:03.195Z,36.30
2023-05-23T06:38:35.916Z,36.50
2023-05-23T06:41:08.575Z,36.50
2023-05-23T06:43:39.849Z,36.50
2023-05-23T06:46:18.326Z,36.60
2023-05-23T06:48:50.716Z,36.90
2023-05-23T06:51:26.129Z,37.00
2023-05-23T06:53:58.013Z,37.20
2023-05-23T06:56:28.997Z,36.90
2023-05-23T06:59:01.378Z,36.90
2023-05-23T07:01:31.644Z,37.00
2023-05-23T07:04:01.867Z,37.20
2023-05-23T07:06:33.020Z,37.20
2023-05-23T07:09:03.948Z,37.40
2023-05-23T07:11:33.858Z,37.60
2023-05-23T07:14:05.383Z,37.50
2023-05-23T07:16:39.325Z,37.50
2023-05-23T07:19:10.895Z,37.70
2023-05-23T07:21:50.647Z,37.50
2023-05-23T07:24:23.279Z,37.70
2023-05-23T07:26:54.704Z,37.50
2023-05-23T07:29:25.231Z,37.60
2023-05-23T07:31:56.664Z,37.00
2023-05-23T07:34:28.330Z,37.00
2023-05-23T07:37:03.025Z,37.30
2023-05-23T07:39:40.618Z,37.60
2023-05-23T07:42:11.141Z,37.40
2023-05-23T07:44:41.083Z,37.50
2023-05-23T07:47:12.444Z,37.20
2023-05-23T07:49:42.605Z,37.00
2023-05-23T07:52:12.560Z,37.40
2023-05-23T07:54:43.483Z,37.50
2023-05-23T07:57:14.810Z,37.40
2023-05-23T07:59:45.192Z,37.70
2023-05-23T08:02:15.372Z,37.80
2023-05-23T08:04:46.837Z,37.90
2023-05-23T08:07:19.631Z,37.90
2023-05-23T08:09:58.008Z,37.90
2023-05-23T08:12:28.272Z,38.00
2023-05-23T08:15:09.771Z,37.80
2023-05-23T08:17:46.787Z,37.80
2023-05-23T08:20:17.003Z,37.70
2023-05-23T08:22:48.395Z,37.60
2023-05-23T08:25:18.691Z,37.40
2023-05-23T08:27:48.782Z,37.60
2023-05-23T08:30:38.436Z,37.70
2023-05-23T08:33:08.951Z,37.80
2023-05-23T08:35:40.880Z,37.70
2023-05-23T08:38:13.426Z,37.90
2023-05-23T08:40:54.209Z,37.80
2023-05-23T08:43:26.111Z,37.90
2023-05-23T08:45:56.700Z,38.10
2023-05-23T08:48:30.225Z,37.90
2023-05-23T08:51:01.444Z,38.00
2023-05-23T08:53:33.759Z,37.90
2023-05-23T08:56:09.198Z,38.10
2023-05-23T08:58:45.541Z,37.90
2023-05-23T09:01:16.391Z,37.70
2023-05-23T09:03:46.412Z,37.60
2023-05-23T09:06:37.115Z,37.80
2023-05-23T09:09:09.383Z,37.70
2023-05-23T09:11:41.321Z,37.10
2023-05-23T09:14:12.964Z,37.60
2023-05-23T09:16:52.285Z,37.70
2023-05-23T09:19:26.175Z,37.80
2023-05-23T09:22:05.350Z,37.80
2023-05-23T09:24:43.134Z,37.90
2023-05-23T09:27:13.433Z,37.90
2023-05-23T09:29:43.336Z,38.00
2023-05-23T09:32:22.206Z,37.70
2023-05-23T09:35:05.565Z,37.70
2023-05-23T09:37:39.338Z,37.50
2023-05-23T09:40:15.822Z,37.40
2023-05-23T09:42:55.630Z,37.60
2023-05-23T09:45:32.857Z,37.50
2023-05-23T09:48:04.578Z,37.70
2023-05-23T09:50:36.339Z,37.70
2023-05-23T09:53:06.988Z,37.50
2023-05-23T09:55:37.089Z,37.50
2023-05-23T09:58:07.488Z,37.40
2023-05-23T10:00:37.801Z,37.50
2023-05-23T10:03:15.227Z,37.50
2023-05-23T10:06:05.516Z,37.20
2023-05-23T10:08:58.831Z,37.10
2023-05-23T10:12:08.136Z,37.10
2023-05-23T10:14:45.051Z,37.20
2023-05-23T10:17:23.709Z,37.20
2023-05-23T10:20:09.934Z,37.10
2023-05-23T10:22:41.985Z,36.90
2023-05-23T10:25:12.347Z,36.90
2023-05-23T10:27:44.005Z,36.90
2023-05-23T10:30:14.852Z,36.90
2023-05-23T10:32:46.759Z,36.90
2023-05-23T10:35:49.388Z,36.80
2023-05-23T10:38:33.557Z,36.90
2023-05-23T10:41:29.178Z,36.40
2023-05-23T10:44:19.663Z,35.90
2023-05-23T10:46:59.576Z,35.60
2023-05-23T10:49:53.884Z,35.60
2023-05-23T10:52:30.651Z,35.50
2023-05-23T10:55:01.194Z,35.40
2023-05-23T10:57:31.444Z,35.10
2023-05-23T11:00:01.399Z,35.00
2023-05-23T11:02:32.067Z,34.60
2023-05-23T11:05:23.935Z,34.30
2023-05-23T11:08:15.801Z,34.20
2023-05-23T11:11:02.458Z,34.10
2023-05-23T11:13:59.519Z,33.90
2023-05-23T11:16:33.509Z,33.50
2023-05-23T11:19:24.491Z,33.50
2023-05-23T11:22:04.121Z,33.40
2023-05-23T11:24:55.205Z,33.30
2023-05-23T11:27:47.925Z,33.40
2023-05-23T11:30:19.256Z,33.30
2023-05-23T11:32:56.151Z,33.30
2023-05-23T11:35:26.540Z,33.20
2023-05-23T11:37:59.611Z,33.20
2023-05-23T11:40:33.162Z,33.10
2023-05-23T11:43:10.686Z,33.20
2023-05-23T11:45:42.033Z,32.80
2023-05-23T11:48:18.250Z,32.70
2023-05-23T11:50:55.962Z,32.60
2023-05-23T11:53:29.072Z,32.70
2023-05-23T11:56:04.720Z,32.60
2023-05-23T11:58:39.803Z,32.20
2023-05-23T12:01:11.545Z,32.20
2023-05-23T12:03:52.924Z,32.00
2023-05-23T12:06:27.471Z,32.00
2023-05-23T12:08:57.662Z,31.60
2023-05-23T12:11:28.333Z,31.20
2023-05-23T12:13:58.842Z,31.10
2023-05-23T12:16:29.913Z,30.80
2023-05-23T12:19:01.619Z,31.00
2023-05-23T12:21:51.678Z,31.00
2023-05-23T12:24:24.353Z,30.80
2023-05-23T12:27:01.497Z,30.70
2023-05-23T12:29:34.795Z,30.60
2023-05-23T12:32:07.885Z,30.50
2023-05-23T12:34:44.495Z,30.60
2023-05-23T12:37:20.156Z,30.80
2023-05-23T12:39:50.841Z,30.60
2023-05-23T12:42:20.658Z,30.70
2023-05-23T12:44:54.145Z,30.50
2023-05-23T12:47:24.478Z,30.60
2023-05-23T12:49:54.460Z,30.70
2023-05-23T12:52:24.993Z,30.60
2023-05-23T12:54:55.189Z,30.40
2023-05-23T12:57:25.197Z,30.50
2023-05-23T12:59:55.156Z,30.40
2023-05-23T13:02:25.000Z,30.40
2023-05-23T13:04:57.014Z,30.30
2023-05-23T13:07:27.181Z,30.30
2023-05-23T13:09:57.254Z,30.20
2023-05-23T13:12:27.591Z,30.10
2023-05-23T13:14:57.474Z,30.00
2023-05-23T13:17:27.600Z,30.00
2023-05-23T13:19:57.973Z,30.10
2023-05-23T13:22:28.288Z,30.10
2023-05-23T13:24:58.173Z,30.10
2023-05-23T13:27:28.158Z,30.00
2023-05-23T13:29:57.928Z,30.10
2023-05-23T13:32:28.528Z,30.10
2023-05-23T13:34:58.315Z,29.80
2023-05-23T13:37:28.521Z,29.90
2023-05-23T13:39:58.360Z,30.00
2023-05-23T13:42:28.591Z,30.00
2023-05-23T13:44:58.504Z,30.10
2023-05-23T13:47:28.480Z,30.00
2023-05-23T13:49:58.429Z,30.00
2023-05-23T13:52:28.920Z,30.00
2023-05-23T13:54:58.864Z,30.00
2023-05-23T13:57:29.430Z,30.10
2023-05-23T13:59:59.731Z,30.00
2023-05-23T14:02:29.772Z,29.90
2023-05-23T14:05:00.720Z,29.70
2023-05-23T14:07:30.892Z,29.80
2023-05-23T14:10:01.266Z,29.90
2023-05-23T14:12:32.019Z,29.80
2023-05-23T14:15:02.364Z,29.80
2023-05-23T14:17:32.220Z,29.80
2023-05-23T14:20:02.433Z,29.80
2023-05-23T14:22:32.403Z,29.70
2023-05-23T14:25:02.907Z,29.80
2023-05-23T14:27:36.906Z,29.70
2023-05-23T14:30:07.737Z,29.80
2023-05-23T14:32:40.654Z,29.70
2023-05-23T14:35:13.494Z,29.60
2023-05-23T14:37:43.997Z,29.60
2023-05-23T14:40:15.757Z,29.50
2023-05-23T14:42:45.918Z,29.60
2023-05-23T14:45:18.513Z,29.70
2023-05-23T14:47:49.182Z,29.50
2023-05-23T14:50:19.181Z,29.50
2023-05-23T14:52:49.300Z,29.40
2023-05-23T14:55:19.229Z,29.50
2023-05-23T14:57:49.218Z,29.50
2023-05-23T15:00:19.979Z,29.30
2023-05-23T15:02:50.605Z,29.30
2023-05-23T15:05:20.586Z,29.20
2023-05-23T15:07:52.755Z,29.10
2023-05-23T15:10:23.539Z,29.00
2023-05-23T15:12:53.708Z,29.00
2023-05-23T15:15:44.304Z,29.00
2023-05-23T15:18:24.531Z,29.10
2023-05-23T15:21:02.270Z,29.20
2023-05-23T15:23:32.366Z,29.10
2023-05-23T15:26:02.898Z,29.00
2023-05-23T15:28:32.797Z,29.10
2023-05-23T15:31:02.837Z,29.20
2023-05-23T15:33:32.736Z,29.10
2023-05-23T15:36:03.716Z,29.20
2023-05-23T15:38:34.439Z,29.20
2023-05-23T15:41:04.852Z,29.10
2023-05-23T15:43:37.105Z,28.80
2023-05-23T15:46:07.488Z,29.00
2023-05-23T15:48:37.449Z,29.20
2023-05-23T15:51:07.687Z,29.40
2023-05-23T15:53:58.161Z,29.40
2023-05-23T15:56:27.902Z,29.30
2023-05-23T15:58:58.221Z,29.10
2023-05-23T16:01:28.630Z,28.90
2023-05-23T16:03:58.700Z,29.00
2023-05-23T16:06:30.811Z,29.10
2023-05-23T16:09:01.103Z,29.00
2023-05-23T16:11:31.076Z,29.00
2023-05-23T16:14:02.001Z,29.00
2023-05-23T16:16:32.256Z,28.90
2023-05-23T16:19:02.960Z,28.80
2023-05-23T16:21:33.814Z,28.80
2023-05-23T16:24:03.833Z,28.80
2023-05-23T16:26:33.981Z,28.80
2023-05-23T16:29:03.779Z,28.80
2023-05-23T16:31:33.953Z,28.70
2023-05-23T16:34:03.786Z,28.60
2023-05-23T16:36:35.215Z,28.70
2023-05-23T16:39:05.615Z,28.70
2023-05-23T16:41:35.404Z,28.80
2023-05-23T16:44:05.446Z,28.80
2023-05-23T16:46:37.166Z,28.80
2023-05-23T16:49:06.937Z,28.50
2023-05-23T16:51:37.400Z,28.50
2023-05-23T16:54:07.455Z,28.50
2023-05-23T16:56:40.381Z,28.50
2023-05-23T16:59:10.396Z,28.40
2023-05-23T17:01:40.229Z,28.50
2023-05-23T17:04:10.368Z,28.50
2023-05-23T17:06:40.184Z,28.60
2023-05-23T17:09:10.271Z,28.50
2023-05-23T17:11:40.048Z,28.40
2023-05-23T17:14:10.048Z,28.50
2023-05-23T17:16:40.116Z,28.40
2023-05-23T17:19:10.284Z,28.70
2023-05-23T17:21:40.240Z,28.50
2023-05-23T17:24:12.483Z,28.50
2023-05-23T17:26:42.837Z,28.60
2023-05-23T17:29:12.640Z,28.50
2023-05-23T17:31:42.728Z,28.60
2023-05-23T17:34:14.041Z,28.50
2023-05-23T17:36:44.305Z,28.50
2023-05-23T17:39:14.167Z,28.40
2023-05-23T17:41:44.538Z,28.50
2023-05-23T17:44:14.413Z,28.50
2023-05-23T17:46:44.609Z,28.40
2023-05-23T17:49:14.414Z,28.40
2023-05-23T17:51:44.372Z,28.40
2023-05-23T17:54:14.235Z,28.40
2023-05-23T17:56:45.470Z,28.40
2023-05-23T17:59:19.268Z,28.40
2023-05-23T18:01:49.451Z,28.50
2023-05-23T18:04:19.398Z,28.70
2023-05-23T18:06:49.497Z,28.50
2023-05-23T18:09:19.265Z,28.50
2023-05-23T18:11:49.801Z,28.50
2023-05-23T18:14:19.628Z,28.60
2023-05-23T18:16:49.764Z,28.60
2023-05-23T18:19:19.809Z,28.60
2023-05-23T18:21:50.019Z,28.60
2023-05-23T18:24:19.846Z,28.50
2023-05-23T18:26:49.865Z,28.40
2023-05-23T18:29:21.532Z,28.40
2023-05-23T18:31:51.716Z,28.30
2023-05-23T18:34:21.554Z,28.30
2023-05-23T18:36:51.611Z,28.30
2023-05-23T18:39:21.424Z,28.30
2023-05-23T18:41:51.415Z,28.30
2023-05-23T18:44:21.367Z,28.40
2023-05-23T18:46:51.341Z,28.20
2023-05-23T18:49:21.297Z,28.20
2023-05-23T18:51:53.213Z,28.20
2023-05-23T18:54:23.636Z,28.30
2023-05-23T18:56:53.748Z,28.30
2023-05-23T18:59:23.708Z,28.30
2023-05-23T19:01:53.672Z,28.40
2023-05-23T19:04:23.700Z,28.40
2023-05-23T19:06:53.992Z,28.40
2023-05-23T19:09:24.072Z,28.40
2023-05-23T19:11:56.413Z,28.30
2023-05-23T19:14:26.544Z,28.40
2023-05-23T19:16:57.174Z,28.20
2023-05-23T19:19:29.974Z,28.20
2023-05-23T19:22:02.409Z,28.30
2023-05-23T19:24:33.531Z,28.00
2023-05-23T19:27:04.033Z,28.00
2023-05-23T19:29:34.323Z,28.00
2023-05-23T19:32:04.244Z,27.90
2023-05-23T19:34:34.457Z,28.00
2023-05-23T19:37:04.333Z,28.00
2023-05-23T19:39:34.689Z,27.90
2023-05-23T19:42:04.595Z,28.00
2023-05-23T19:44:34.659Z,28.00
2023-05-23T19:47:04.595Z,28.00
2023-05-23T19:49:34.855Z,28.00
2023-05-23T19:52:04.765Z,28.00
2023-05-23T19:54:34.895Z,27.90
2023-05-23T19:57:06.337Z,27.80
2023-05-23T19:59:36.518Z,27.90
2023-05-23T20:02:06.465Z,27.90
2023-05-23T20:04:36.643Z,28.00
2023-05-23T20:07:07.983Z,28.00
2023-05-23T20:09:38.398Z,27.90
2023-05-23T20:12:08.532Z,28.00
2023-05-23T20:14:38.915Z,28.00
2023-05-23T20:17:09.637Z,27.80
2023-05-23T20:19:41.045Z,27.70
2023-05-23T20:22:11.093Z,27.70
2023-05-23T20:24:41.128Z,27.80
2023-05-23T20:27:11.546Z,28.00
2023-05-23T20:29:42.321Z,28.00
2023-05-23T20:32:12.613Z,28.00
2023-05-23T20:34:42.907Z,27.90
2023-05-23T20:37:15.149Z,27.90
2023-05-23T20:39:45.498Z,28.00
2023-05-23T20:42:16.518Z,27.80
2023-05-23T20:44:46.666Z,27.80
2023-05-23T20:47:17.051Z,27.80
2023-05-23T20:49:49.210Z,27.90
2023-05-23T20:52:19.250Z,28.00
2023-05-23T20:54:50.020Z,27.90
2023-05-23T20:57:21.366Z,27.90
2023-05-23T20:59:51.851Z,27.80
2023-05-23T21:02:21.670Z,27.90
2023-05-23T21:04:52.153Z,27.90
2023-05-23T21:07:22.104Z,27.90
2023-05-23T21:09:52.046Z,27.80
2023-05-23T21:12:21.911Z,27.60
2023-05-23T21:14:52.119Z,27.80
2023-05-23T21:17:21.867Z,27.70
2023-05-23T21:19:51.883Z,27.50
2023-05-23T21:22:21.817Z,27.50
2023-05-23T21:24:52.081Z,27.60
2023-05-23T21:27:22.212Z,27.50
2023-05-23T21:29:53.161Z,27.60
2023-05-23T21:32:24.072Z,27.80
2023-05-23T21:34:54.055Z,27.70
2023-05-23T21:37:23.882Z,27.80
2023-05-23T21:39:53.938Z,27.80
2023-05-23T21:42:23.744Z,27.70
2023-05-23T21:44:53.755Z,27.50
2023-05-23T21:47:25.507Z,27.60
2023-05-23T21:49:55.441Z,27.60
2023-05-23T21:52:25.329Z,27.60
2023-05-23T21:54:55.260Z,27.60
2023-05-23T21:57:25.084Z,27.60
2023-05-23T21:59:55.187Z,27.60
2023-05-23T22:02:25.035Z,27.70
2023-05-23T22:04:55.130Z,27.60
2023-05-23T22:07:27.303Z,27.40
2023-05-23T22:09:57.894Z,27.60
2023-05-23T22:12:27.675Z,27.60
2023-05-23T22:14:58.714Z,27.50
2023-05-23T22:17:28.974Z,27.40
2023-05-23T22:19:59.557Z,27.50
2023-05-23T22:22:29.875Z,27.70
2023-05-23T22:24:59.672Z,27.70
2023-05-23T22:27:30.075Z,27.70
2023-05-23T22:30:00.569Z,27.70
2023-05-23T22:32:30.723Z,27.70
2023-05-23T22:35:00.621Z,27.70
2023-05-23T22:37:30.809Z,27.50
2023-05-23T22:40:00.741Z,27.40
2023-05-23T22:42:30.796Z,27.30
2023-05-23T22:45:00.641Z,27.40
2023-05-23T22:47:30.973Z,27.50
2023-05-23T22:50:01.580Z,27.60
2023-05-23T22:52:33.000Z,27.60
2023-05-23T22:55:02.958Z,27.60
2023-05-23T22:57:32.735Z,27.60
2023-05-23T23:00:02.958Z,27.60
2023-05-23T23:02:32.811Z,27.70
2023-05-23T23:05:02.869Z,27.70
2023-05-23T23:07:32.681Z,27.70
2023-05-23T23:10:02.626Z,27.70
2023-05-23T23:12:32.422Z,27.70
2023-05-23T23:15:03.085Z,27.60
2023-05-23T23:17:33.165Z,27.60
2023-05-23T23:20:03.279Z,27.70
2023-05-23T23:22:33.482Z,27.70
2023-05-23T23:25:03.662Z,27.60
2023-05-23T23:27:34.103Z,27.60
2023-05-23T23:30:05.513Z,27.60
2023-05-23T23:32:36.217Z,27.60
2023-05-23T23:35:07.006Z,27.60
2023-05-23T23:37:37.355Z,27.70
2023-05-23T23:40:07.692Z,27.60
2023-05-23T23:42:37.885Z,27.70
2023-05-23T23:45:08.105Z,27.70
2023-05-23T23:47:38.350Z,27.70
2023-05-23T23:50:09.026Z,27.70
2023-05-23T23:52:39.066Z,27.70
2023-05-23T23:55:09.400Z,27.70
2023-05-23T23:57:39.508Z,27.70
